Time;durP1;ratioP1;P1;durP2;ratioP2;P2;SDS_P1;SDS_P2;PMS_P1;PMS_P2;Temp;Humidity;BMP_temperature;BMP_pressure;BME280_temperature;BME280_humidity;BME280_pressure;Samples;Min_cycle;Max_cycle;Signal;HPM_P1;HPM_P2
2022/03/21 00:00:42;;;;;;;48.28;23.98;;;5.70;66.70;;;;;;5134074;28;20046;-64
2022/03/21 00:03:10;;;;;;;50.03;24.25;;;5.60;67.10;;;;;;5134043;28;20028;-64
2022/03/21 00:05:36;;;;;;;48.78;24.98;;;5.70;67.10;;;;;;5134031;28;20023;-64
2022/03/21 00:08:02;;;;;;;44.65;23.13;;;5.80;67.30;;;;;;5133934;28;20049;-64
2022/03/21 00:10:34;;;;;;;44.30;23.35;;;5.80;67.00;;;;;;5132878;28;20020;-64
2022/03/21 00:13:00;;;;;;;48.80;24.33;;;5.80;66.80;;;;;;5133694;28;20039;-64
2022/03/21 00:15:27;;;;;;;45.65;23.40;;;5.90;66.50;;;;;;5133894;28;20166;-64
2022/03/21 00:17:52;;;;;;;48.53;24.50;;;5.90;66.10;;;;;;5133896;28;20019;-65
2022/03/21 00:20:19;;;;;;;47.97;23.27;;;5.70;66.50;;;;;;5133797;28;20046;-64
2022/03/21 00:22:45;;;;;;;61.65;25.52;;;5.70;66.90;;;;;;5133002;28;20023;-64
2022/03/21 00:25:10;;;;;;;45.65;23.98;;;5.50;66.90;;;;;;5132881;28;20054;-64
2022/03/21 00:27:38;;;;;;;44.00;22.27;;;5.40;67.10;;;;;;5133731;28;20032;-64
2022/03/21 00:30:05;;;;;;;43.88;22.73;;;5.50;66.90;;;;;;5134076;28;20043;-64
2022/03/21 00:32:31;;;;;;;44.78;22.33;;;5.50;66.50;;;;;;5137910;28;20027;-65
2022/03/21 00:34:57;;;;;;;46.50;22.95;;;5.40;66.40;;;;;;5137996;28;20087;-65
2022/03/21 00:37:23;;;;;;;43.25;22.83;;;5.40;66.70;;;;;;5137960;28;20020;-65
2022/03/21 00:39:51;;;;;;;44.63;23.20;;;5.40;66.90;;;;;;5137896;28;20027;-65
2022/03/21 00:42:17;;;;;;;49.22;23.90;;;5.30;67.40;;;;;;5137979;28;20019;-65
2022/03/21 00:44:43;;;;;;;48.05;24.02;;;5.30;67.60;;;;;;5137799;28;20084;-65
2022/03/21 00:47:08;;;;;;;51.13;24.75;;;5.40;67.50;;;;;;5137746;28;20079;-65
2022/03/21 00:49:34;;;;;;;48.45;23.63;;;5.40;67.50;;;;;;5137757;28;20372;-65
2022/03/21 00:52:00;;;;;;;43.80;22.73;;;5.40;67.30;;;;;;5137591;28;20031;-65
2022/03/21 00:54:25;;;;;;;46.95;23.15;;;5.50;67.10;;;;;;5137681;28;20048;-64
2022/03/21 00:56:51;;;;;;;43.05;21.92;;;5.50;66.80;;;;;;5137538;28;20023;-64
2022/03/21 00:59:17;;;;;;;41.92;21.05;;;5.60;66.60;;;;;;5137471;28;20024;-64
2022/03/21 01:01:42;;;;;;;47.67;23.65;;;5.60;66.20;;;;;;5137459;28;20107;-64
2022/03/21 01:04:08;;;;;;;48.42;25.05;;;5.60;66.10;;;;;;5137403;28;20040;-65
2022/03/21 01:06:35;;;;;;;51.50;24.63;;;5.60;66.00;;;;;;5137367;28;20035;-65
2022/03/21 01:09:01;;;;;;;48.38;25.65;;;5.50;66.20;;;;;;5137328;28;20018;-64
2022/03/21 01:11:27;;;;;;;47.47;24.70;;;5.50;66.30;;;;;;5137314;28;20052;-64
2022/03/21 01:13:52;;;;;;;50.35;25.15;;;5.50;66.50;;;;;;5137031;28;20051;-64
2022/03/21 01:16:18;;;;;;;50.03;23.90;;;5.40;67.00;;;;;;5137170;28;20028;-64
2022/03/21 01:18:47;;;;;;;51.22;23.90;;;5.40;67.10;;;;;;5137142;28;20047;-65
2022/03/21 01:21:13;;;;;;;49.25;25.08;;;5.40;67.20;;;;;;5137082;28;20030;-64
2022/03/21 01:23:39;;;;;;;46.83;23.92;;;5.40;67.10;;;;;;5137056;28;20047;-64
2022/03/21 01:26:05;;;;;;;52.80;24.27;;;5.40;67.20;;;;;;5136965;28;20031;-64
2022/03/21 01:28:31;;;;;;;45.35;23.30;;;5.50;67.20;;;;;;5136817;28;20023;-64
2022/03/21 01:30:57;;;;;;;46.85;23.88;;;5.50;67.00;;;;;;5136911;28;20024;-64
2022/03/21 01:33:22;;;;;;;47.88;24.05;;;5.50;66.80;;;;;;5136770;28;20035;-64
2022/03/21 01:35:48;;;;;;;45.17;23.23;;;5.50;66.60;;;;;;5136787;28;20028;-64
2022/03/21 01:38:14;;;;;;;45.30;23.38;;;5.50;66.10;;;;;;5136786;28;20081;-64
2022/03/21 01:40:39;;;;;;;47.15;22.83;;;5.40;66.00;;;;;;5136730;28;20051;-64
2022/03/21 01:43:11;;;;;;;43.17;22.00;;;5.40;66.10;;;;;;5135517;28;20186;-64
2022/03/21 01:45:38;;;;;;;49.03;23.67;;;5.40;66.00;;;;;;5135769;28;20047;-64
2022/03/21 01:48:04;;;;;;;47.33;24.05;;;5.30;65.90;;;;;;5135515;28;20452;-64
2022/03/21 01:50:30;;;;;;;53.90;22.67;;;5.30;66.20;;;;;;5136672;28;20053;-64
2022/03/21 01:55:44;;;;;;;49.97;23.35;;;5.30;66.30;;;;;;5136609;28;20031;-64
2022/03/21 01:58:15;;;;;;;51.03;24.73;;;5.20;66.30;;;;;;5135537;28;20098;-65
2022/03/21 02:00:42;;;;;;;54.67;24.08;;;5.10;67.30;;;;;;5136436;28;20020;-64
2022/03/21 02:03:08;;;;;;;50.80;23.48;;;5.20;66.60;;;;;;5136324;28;20075;-64
2022/03/21 02:05:37;;;;;;;52.65;24.73;;;5.20;66.60;;;;;;5136226;28;20024;-64
2022/03/21 02:08:03;;;;;;;49.58;24.83;;;5.10;66.60;;;;;;5135229;28;20053;-64
2022/03/21 02:10:29;;;;;;;57.05;26.85;;;5.00;66.70;;;;;;5135845;28;20034;-64
2022/03/21 02:12:55;;;;;;;51.17;25.73;;;5.00;66.60;;;;;;5135994;28;20074;-64
2022/03/21 02:15:21;;;;;;;55.20;25.45;;;5.00;66.70;;;;;;5135994;28;20028;-64
2022/03/21 02:17:47;;;;;;;51.15;25.15;;;4.80;66.30;;;;;;5136020;28;20035;-64
2022/03/21 02:20:20;;;;;;;51.20;24.17;;;4.80;66.60;;;;;;5135966;28;20077;-64
2022/03/21 02:23:11;;;;;;;45.17;22.40;;;4.80;66.80;;;;;;5135971;28;20057;-64
2022/03/21 02:25:44;;;;;;;49.03;22.38;;;4.80;66.60;;;;;;5135981;28;20024;-65
2022/03/21 02:28:12;;;;;;;50.42;23.88;;;4.80;66.50;;;;;;5135794;28;20028;-64
2022/03/21 02:30:40;;;;;;;47.63;23.30;;;4.70;66.70;;;;;;5135896;27;20034;-64
2022/03/21 02:33:06;;;;;;;44.17;21.48;;;4.70;66.80;;;;;;5135602;28;20028;-64
2022/03/21 02:35:33;;;;;;;47.45;22.33;;;4.70;66.90;;;;;;5134447;28;20053;-64
2022/03/21 02:38:01;;;;;;;48.30;22.83;;;4.60;67.00;;;;;;5135661;28;20024;-64
2022/03/21 02:40:27;;;;;;;44.03;20.98;;;4.60;67.10;;;;;;5135542;28;20027;-64
2022/03/21 02:42:53;;;;;;;52.92;24.08;;;4.60;67.00;;;;;;5135598;28;20027;-64
2022/03/21 02:45:19;;;;;;;55.63;24.50;;;4.60;66.90;;;;;;5135458;27;20602;-64
2022/03/21 02:47:45;;;;;;;57.50;25.98;;;4.40;66.90;;;;;;5135489;28;20031;-64
2022/03/21 02:50:18;;;;;;;49.63;24.60;;;4.20;67.40;;;;;;5134362;28;20026;-64
2022/03/21 02:52:45;;;;;;;;;;;4.30;67.80;;;;;;5135725;28;20016;-64
2022/03/21 02:55:10;;;;;;;53.67;20.38;;;4.30;67.70;;;;;;5135077;28;19994;-64
2022/03/21 02:57:36;;;;;;;48.25;21.88;;;4.40;67.90;;;;;;5134168;28;20387;-64
2022/03/21 03:00:02;;;;;;;48.35;21.42;;;4.20;67.60;;;;;;5135134;28;20035;-64
2022/03/21 03:02:28;;;;;;;46.00;21.85;;;4.20;68.10;;;;;;5135122;28;20042;-64
2022/03/21 03:04:54;;;;;;;44.35;21.60;;;4.20;68.00;;;;;;5135086;28;20028;-64
2022/03/21 03:07:19;;;;;;;43.70;20.60;;;4.30;67.90;;;;;;5135022;28;20028;-64
2022/03/21 03:09:45;;;;;;;48.47;21.73;;;4.30;67.80;;;;;;5134948;28;20426;-64
2022/03/21 03:12:11;;;;;;;43.90;21.63;;;4.30;67.90;;;;;;5134587;28;20063;-65
2022/03/21 03:14:36;;;;;;;46.28;21.75;;;4.20;67.80;;;;;;5134911;28;20027;-64
2022/03/21 03:17:02;;;;;;;43.80;22.23;;;4.20;67.90;;;;;;5134921;28;20023;-64
2022/03/21 03:19:28;;;;;;;42.63;21.05;;;4.10;67.80;;;;;;5134761;28;20035;-65
2022/03/21 03:21:55;;;;;;;46.63;21.63;;;4.20;68.00;;;;;;5133700;28;20032;-64
2022/03/21 03:24:25;;;;;;;43.22;20.85;;;4.20;67.70;;;;;;5134690;28;20083;-64
2022/03/21 03:26:51;;;;;;;49.35;21.98;;;4.30;67.60;;;;;;5134752;28;20080;-64
2022/03/21 03:29:16;;;;;;;48.33;23.40;;;4.30;67.50;;;;;;5134467;28;20047;-64
2022/03/21 03:31:43;;;;;;;48.55;21.95;;;4.40;67.50;;;;;;5134475;28;20049;-64
2022/03/21 03:34:09;;;;;;;48.08;22.00;;;4.40;67.40;;;;;;5134470;28;20027;-65
2022/03/21 03:36:35;;;;;;;51.03;22.23;;;4.30;67.40;;;;;;5134519;28;20089;-65
2022/03/21 03:39:01;;;;;;;47.13;22.50;;;4.40;67.50;;;;;;5133429;28;20087;-65
2022/03/21 03:41:27;;;;;;;45.03;21.67;;;4.20;67.70;;;;;;5134349;28;20024;-65
2022/03/21 03:43:53;;;;;;;38.65;20.30;;;4.20;67.80;;;;;;5134318;28;20081;-65
2022/03/21 03:46:19;;;;;;;44.28;21.17;;;4.10;68.10;;;;;;5134300;28;20066;-65
2022/03/21 03:48:45;;;;;;;40.20;20.15;;;4.00;67.80;;;;;;5134201;28;20026;-65
2022/03/21 03:51:12;;;;;;;43.65;20.40;;;3.90;67.70;;;;;;5134248;28;20024;-65
2022/03/21 03:53:38;;;;;;;46.15;21.40;;;3.90;67.90;;;;;;5134111;28;20028;-65
2022/03/21 03:56:04;;;;;;;44.97;21.05;;;3.80;69.20;;;;;;5134176;28;20024;-65
2022/03/21 03:58:30;;;;;;;45.15;19.98;;;3.60;69.00;;;;;;5134122;28;20110;-65
2022/03/21 04:00:56;;;;;;;43.92;20.90;;;3.70;69.20;;;;;;5133149;28;20563;-65
2022/03/21 04:06:07;;;;;;;45.83;20.13;;;3.80;68.80;;;;;;5133585;28;20044;-65
2022/03/21 04:08:32;;;;;;;41.67;20.83;;;3.80;69.20;;;;;;5134020;28;20027;-65
2022/03/21 04:10:58;;;;;;;43.85;20.60;;;3.80;69.10;;;;;;5133915;28;20028;-65
2022/03/21 04:13:23;;;;;;;46.42;21.17;;;3.90;69.10;;;;;;5133639;28;20047;-65
2022/03/21 04:15:49;;;;;;;45.55;20.63;;;4.00;68.80;;;;;;5132902;28;20032;-65
2022/03/21 04:18:15;;;;;;;43.65;19.98;;;4.00;68.30;;;;;;5133952;28;20032;-65
2022/03/21 04:20:40;;;;;;;44.33;20.80;;;3.90;68.20;;;;;;5132938;28;20030;-65
2022/03/21 04:23:07;;;;;;;45.10;20.38;;;3.80;68.30;;;;;;5133828;28;20061;-65
2022/03/21 04:25:33;;;;;;;46.10;20.65;;;3.70;68.70;;;;;;5132743;28;20027;-65
2022/03/21 04:27:59;;;;;;;47.60;21.17;;;3.60;69.20;;;;;;5133658;28;20087;-65
2022/03/21 04:30:26;;;;;;;44.42;22.85;;;3.60;69.80;;;;;;5133724;28;20035;-65
2022/03/21 04:32:51;;;;;;;61.80;25.10;;;3.50;69.80;;;;;;5133651;28;20023;-65
2022/03/21 04:35:18;;;;;;;69.28;26.85;;;3.60;70.00;;;;;;5133678;28;20032;-65
2022/03/21 04:37:44;;;;;;;57.47;24.73;;;3.70;70.00;;;;;;5133719;28;20024;-65
2022/03/21 04:40:10;;;;;;;61.05;25.92;;;3.80;70.00;;;;;;5133777;28;20026;-65
2022/03/21 04:42:37;;;;;;;57.92;23.95;;;3.90;70.00;;;;;;5133766;28;20031;-65
2022/03/21 04:45:04;;;;;;;50.20;22.63;;;3.90;70.10;;;;;;5132610;28;20028;-65
2022/03/21 04:47:30;;;;;;;46.97;21.77;;;3.90;69.90;;;;;;5133683;28;20452;-65
2022/03/21 04:49:56;;;;;;;53.08;21.75;;;3.90;70.10;;;;;;5133656;28;20081;-65
2022/03/21 04:52:21;;;;;;;60.00;22.95;;;3.80;70.00;;;;;;5133400;28;20031;-65
2022/03/21 04:54:48;;;;;;;62.40;25.27;;;3.80;69.90;;;;;;5133496;28;20024;-65
2022/03/21 04:57:14;;;;;;;98.05;26.60;;;3.80;70.10;;;;;;5133523;28;20043;-67
2022/03/21 04:59:40;;;;;;;84.45;27.13;;;3.80;70.80;;;;;;5133481;28;20400;-65
2022/03/21 05:02:06;;;;;;;86.80;28.33;;;3.80;70.70;;;;;;5132372;28;20038;-64
2022/03/21 05:04:32;;;;;;;64.95;25.23;;;3.70;70.90;;;;;;5133470;28;20024;-66
2022/03/21 05:06:58;;;;;;;73.90;25.33;;;3.60;70.80;;;;;;5133389;28;20031;-65
2022/03/21 05:09:24;;;;;;;61.55;25.55;;;3.60;70.80;;;;;;5132477;28;20031;-65
2022/03/21 05:11:50;;;;;;;77.25;27.50;;;3.50;70.70;;;;;;5132349;28;20039;-65
2022/03/21 05:14:18;;;;;;;160.57;28.73;;;3.30;70.90;;;;;;5133193;28;20040;-65
2022/03/21 05:16:48;;;;;;;97.10;28.73;;;3.00;71.50;;;;;;5134689;28;20020;-65
2022/03/21 05:19:14;;;;;;;109.07;27.30;;;2.90;72.60;;;;;;5137250;28;20072;-65
2022/03/21 05:21:40;;;;;;;115.18;26.33;;;2.90;73.40;;;;;;5136173;28;20032;-64
2022/03/21 05:32:25;;;;;;;62.22;23.05;;;3.20;74.20;;;;;;5137006;28;20035;-64
2022/03/21 05:37:35;;;;;;;44.92;19.55;;;3.10;74.30;;;;;;5137004;28;20057;-65
2022/03/21 05:42:45;;;;;;;41.42;19.65;;;2.90;74.30;;;;;;5136821;28;20042;-64
2022/03/21 05:45:13;;;;;;;46.40;20.20;;;2.90;74.70;;;;;;5136679;28;20027;-64
2022/03/21 05:48:50;;;;;;;46.45;18.98;;;2.90;74.90;;;;;;5136646;28;20020;-64
2022/03/21 05:50:24;;;;;;;62.90;19.83;;;3.10;74.50;;;;;;5136391;28;20043;-64
2022/03/21 05:52:49;;;;;;;63.40;18.35;;;3.10;74.60;;;;;;5136516;28;20027;-64
2022/03/21 05:55:15;;;;;;;42.03;18.38;;;3.00;74.70;;;;;;5136504;28;20032;-65
2022/03/21 05:57:41;;;;;;;50.45;19.75;;;2.90;75.00;;;;;;5136394;28;20035;-64
2022/03/21 06:00:22;;;;;;;61.22;19.88;;;3.00;75.30;;;;;;5136370;28;20087;-64
2022/03/21 06:02:49;;;;;;;48.67;18.60;;;2.90;74.90;;;;;;5136466;28;20031;-64
2022/03/21 06:05:15;;;;;;;42.00;19.80;;;2.80;75.60;;;;;;5135213;28;20067;-64
2022/03/21 06:07:40;;;;;;;39.92;18.67;;;2.70;75.60;;;;;;5136225;28;20035;-64
2022/03/21 06:10:07;;;;;;;33.78;16.33;;;2.60;76.00;;;;;;5136145;28;20088;-64
2022/03/21 06:12:32;;;;;;;29.75;15.55;;;2.80;75.90;;;;;;5135884;27;20062;-65
2022/03/21 06:14:59;;;;;;;33.30;16.65;;;2.90;75.70;;;;;;5135109;28;20032;-65
2022/03/21 06:17:25;;;;;;;44.92;18.73;;;3.10;75.30;;;;;;5136065;28;20027;-65
2022/03/21 06:19:51;;;;;;;47.30;16.40;;;3.20;74.60;;;;;;5135968;28;20020;-64
2022/03/21 06:22:17;;;;;;;33.97;15.88;;;3.20;74.30;;;;;;5135932;28;20032;-64
2022/03/21 06:24:43;;;;;;;38.72;16.55;;;3.20;74.80;;;;;;5135836;28;20062;-64
2022/03/21 06:27:08;;;;;;;27.75;14.45;;;3.00;75.10;;;;;;5135731;28;20024;-64
2022/03/21 06:29:34;;;;;;;35.38;15.27;;;2.90;75.50;;;;;;5135142;28;20057;-64
2022/03/21 06:32:00;;;;;;;34.20;16.95;;;3.00;76.00;;;;;;5135658;28;20032;-65
2022/03/21 06:34:25;;;;;;;38.03;18.42;;;3.00;75.70;;;;;;5134640;28;20047;-64
2022/03/21 06:36:52;;;;;;;37.33;17.60;;;3.10;75.60;;;;;;5134605;28;20030;-64
2022/03/21 06:39:18;;;;;;;35.90;17.70;;;3.10;75.50;;;;;;5135614;28;20143;-64
2022/03/21 06:41:44;;;;;;;36.78;17.70;;;3.10;75.60;;;;;;5135575;27;20019;-64
2022/03/21 06:44:10;;;;;;;30.80;16.70;;;3.20;75.30;;;;;;5135670;28;20039;-65
2022/03/21 06:46:36;;;;;;;38.08;18.05;;;3.30;75.40;;;;;;5135455;28;20019;-65
2022/03/21 06:49:03;;;;;;;34.15;17.58;;;3.40;75.10;;;;;;5135428;28;20105;-65
2022/03/21 06:51:28;;;;;;;33.03;16.27;;;3.40;75.10;;;;;;5135263;28;20515;-65
2022/03/21 06:53:54;;;;;;;26.50;13.93;;;3.40;75.40;;;;;;5135243;28;20031;-65
2022/03/21 06:56:19;;;;;;;25.10;13.18;;;3.40;75.80;;;;;;5134203;28;20049;-65
2022/03/21 06:58:45;;;;;;;20.88;12.10;;;3.50;76.30;;;;;;5135206;28;20035;-65
2022/03/21 07:01:11;;;;;;;22.05;11.20;;;3.50;76.20;;;;;;5135117;28;20032;-65
2022/03/21 07:03:36;;;;;;;20.75;11.85;;;3.60;76.00;;;;;;5135101;28;20050;-65
2022/03/21 07:06:02;;;;;;;18.52;10.45;;;3.70;75.80;;;;;;5134953;28;20087;-65
2022/03/21 07:08:28;;;;;;;16.50;10.00;;;3.90;75.80;;;;;;5135108;28;20046;-64
2022/03/21 07:10:53;;;;;;;16.65;9.80;;;3.90;76.50;;;;;;5134969;28;20035;-65
2022/03/21 07:13:19;;;;;;;18.75;10.15;;;4.00;76.50;;;;;;5134687;28;20059;-65
2022/03/21 07:15:44;;;;;;;17.45;10.00;;;4.10;76.30;;;;;;5133867;28;20032;-65
2022/03/21 07:18:10;;;;;;;21.38;11.15;;;4.20;76.70;;;;;;5134809;28;20030;-65
2022/03/21 07:20:37;;;;;;;21.88;11.68;;;4.30;76.70;;;;;;5133799;28;20039;-65
2022/03/21 07:23:03;;;;;;;23.98;12.13;;;4.40;76.70;;;;;;5134741;28;20476;-65
2022/03/21 07:25:29;;;;;;;24.80;12.70;;;4.50;76.70;;;;;;5134675;28;20038;-65
2022/03/21 07:27:54;;;;;;;24.60;12.70;;;4.70;76.80;;;;;;5133539;28;20034;-65
2022/03/21 07:30:20;;;;;;;23.02;12.25;;;4.70;77.10;;;;;;5134706;28;20031;-65
2022/03/21 07:32:46;;;;;;;30.95;14.02;;;4.80;77.00;;;;;;5133343;28;20027;-65
2022/03/21 07:35:15;;;;;;;27.92;14.10;;;4.90;79.40;;;;;;5134522;28;20028;-65
2022/03/21 07:37:50;;;;;;;33.42;17.45;;;5.00;79.90;;;;;;5134436;28;20016;-65
2022/03/21 07:40:16;;;;;;;39.60;16.95;;;5.10;82.80;;;;;;5133720;28;20019;-65
2022/03/21 07:42:44;;;;;;;37.10;17.55;;;5.20;81.70;;;;;;5134368;28;20050;-65
2022/03/21 07:47:57;;;;;;;32.75;15.57;;;5.30;85.50;;;;;;5134422;28;20088;-65
2022/03/21 07:50:26;;;;;;;34.90;15.68;;;5.40;85.90;;;;;;5134317;28;20024;-65
2022/03/21 07:52:53;;;;;;;31.10;16.73;;;5.60;84.60;;;;;;5134234;28;20058;-65
2022/03/21 07:55:19;;;;;;;39.08;15.90;;;5.70;84.50;;;;;;5134197;28;20042;-65
2022/03/21 07:57:45;;;;;;;32.22;15.15;;;5.80;85.30;;;;;;5133165;28;20062;-65
2022/03/21 08:00:12;;;;;;;36.78;17.70;;;5.90;84.40;;;;;;5134145;28;20476;-65
2022/03/21 08:02:39;;;;;;;34.22;16.00;;;6.10;85.70;;;;;;5134092;28;20020;-65
2022/03/21 08:05:05;;;;;;;33.20;15.75;;;6.20;85.50;;;;;;5134075;28;20038;-65
2022/03/21 08:07:35;;;;;;;34.00;15.95;;;6.30;85.60;;;;;;5134013;28;20032;-65
2022/03/21 08:10:04;;;;;;;28.92;14.77;;;6.40;85.20;;;;;;5134046;28;20015;-65
2022/03/21 08:12:30;;;;;;;35.33;17.42;;;6.50;84.50;;;;;;5133704;28;20392;-65
2022/03/21 08:14:59;;;;;;;28.25;14.50;;;6.80;85.20;;;;;;5134096;28;20020;-65
2022/03/21 08:17:26;;;;;;;32.05;15.52;;;6.90;84.60;;;;;;5134020;28;20027;-65
2022/03/21 08:19:52;;;;;;;32.72;15.70;;;7.10;84.00;;;;;;5133872;28;20019;-65
2022/03/21 08:22:20;;;;;;;31.05;15.32;;;7.30;82.70;;;;;;5133871;28;20028;-65
2022/03/21 08:24:46;;;;;;;29.05;13.57;;;7.40;82.30;;;;;;5133813;28;20027;-65
2022/03/21 08:27:11;;;;;;;30.30;14.43;;;7.60;82.00;;;;;;5133790;28;20468;-65
2022/03/21 08:29:37;;;;;;;26.90;14.70;;;7.70;81.70;;;;;;5133677;28;20024;-65
2022/03/21 08:32:03;;;;;;;27.73;14.55;;;7.90;81.00;;;;;;5132746;28;20038;-65
2022/03/21 08:34:29;;;;;;;30.00;14.75;;;8.00;80.30;;;;;;5133727;28;20035;-65
2022/03/21 08:36:54;;;;;;;30.67;14.65;;;8.20;79.80;;;;;;5133694;28;20012;-65
2022/03/21 08:39:20;;;;;;;28.48;13.98;;;8.40;79.50;;;;;;5133658;28;20373;-65
2022/03/21 08:41:46;;;;;;;28.85;14.15;;;8.50;79.60;;;;;;5133693;28;20071;-64
2022/03/21 08:44:11;;;;;;;26.52;14.05;;;8.70;79.30;;;;;;5133619;28;20027;-65
2022/03/21 08:46:37;;;;;;;30.77;14.65;;;8.80;78.60;;;;;;5133693;28;20016;-65
2022/03/21 08:51:47;;;;;;;26.67;13.23;;;9.20;77.70;;;;;;5135090;28;20091;-65
2022/03/21 08:54:13;;;;;;;28.58;14.20;;;9.30;77.50;;;;;;5137812;28;20028;-65
2022/03/21 08:56:39;;;;;;;27.42;12.45;;;9.50;76.90;;;;;;5137592;28;20020;-65
2022/03/21 08:59:05;;;;;;;25.08;12.98;;;9.70;74.90;;;;;;5137534;28;20054;-65
2022/03/21 09:01:31;;;;;;;27.35;13.35;;;9.80;74.60;;;;;;5137516;28;20020;-65
2022/03/21 09:03:59;;;;;;;26.80;12.27;;;10.00;74.00;;;;;;5136592;28;20020;-65
2022/03/21 09:06:24;;;;;;;25.00;12.38;;;10.20;73.30;;;;;;5137482;28;20050;-65
2022/03/21 09:08:50;;;;;;;25.65;11.75;;;10.40;72.40;;;;;;5136366;28;20035;-65
2022/03/21 09:11:17;;;;;;;24.17;11.32;;;10.60;71.40;;;;;;5137326;28;20077;-65
2022/03/21 09:13:44;;;;;;;23.77;12.10;;;10.60;69.80;;;;;;5135989;28;20085;-65
2022/03/21 09:16:11;;;;;;;21.52;11.60;;;10.80;69.90;;;;;;5137274;28;20031;-65
2022/03/21 09:18:36;;;;;;;25.13;11.70;;;10.90;68.70;;;;;;5137260;28;20087;-65
2022/03/21 09:21:02;;;;;;;25.35;11.80;;;11.00;67.30;;;;;;5137128;28;20024;-65
2022/03/21 09:23:28;;;;;;;23.45;11.93;;;11.20;67.80;;;;;;5137084;28;20031;-65
2022/03/21 09:25:53;;;;;;;22.83;11.60;;;11.30;66.20;;;;;;5137074;28;20020;-65
2022/03/21 09:28:19;;;;;;;24.17;11.98;;;11.40;66.10;;;;;;5136910;28;20111;-65
2022/03/21 09:30:44;;;;;;;26.75;11.90;;;11.50;64.30;;;;;;5137098;28;20031;-65
2022/03/21 09:33:10;;;;;;;19.52;11.40;;;11.60;63.60;;;;;;5136822;28;20032;-65
2022/03/21 09:35:37;;;;;;;23.55;11.27;;;11.70;62.50;;;;;;5136873;28;20027;-65
2022/03/21 09:38:03;;;;;;;29.08;11.68;;;11.70;62.20;;;;;;5136863;28;20020;-65
2022/03/21 09:40:29;;;;;;;26.92;12.15;;;11.80;62.40;;;;;;5136827;27;20034;-66
2022/03/21 09:42:55;;;;;;;22.38;11.65;;;11.80;61.90;;;;;;5136872;28;20027;-65
2022/03/21 09:45:21;;;;;;;24.20;11.90;;;11.90;61.70;;;;;;5135779;28;20058;-65
2022/03/21 09:50:36;;;;;;;23.63;12.00;;;12.10;62.30;;;;;;5135985;28;20046;-65
2022/03/21 09:53:05;;;;;;;27.05;13.18;;;12.30;60.40;;;;;;5136476;28;20031;-66
2022/03/21 09:55:31;;;;;;;26.58;12.25;;;12.50;62.20;;;;;;5136643;28;20012;-65
2022/03/21 09:57:57;;;;;;;28.58;13.27;;;12.50;60.00;;;;;;5135432;28;20503;-65
2022/03/21 10:00:23;;;;;;;27.73;12.98;;;12.60;58.90;;;;;;5136419;28;20020;-66
2022/03/21 10:02:48;;;;;;;24.35;12.80;;;12.60;59.30;;;;;;5135544;28;20038;-65
2022/03/21 10:05:34;;;;;;;24.65;13.18;;;12.70;60.70;;;;;;5136181;28;20099;-64
2022/03/21 10:08:10;;;;;;;27.20;13.30;;;12.90;59.40;;;;;;5135269;28;20074;-64
2022/03/21 10:10:36;;;;;;;27.08;12.88;;;13.00;58.20;;;;;;5136216;28;20034;-63
2022/03/21 10:13:03;;;;;;;26.75;13.65;;;13.10;57.80;;;;;;5135794;28;20083;-64
2022/03/21 10:15:29;;;;;;;25.33;13.00;;;13.20;58.30;;;;;;5136135;28;20024;-64
2022/03/21 10:18:11;;;;;;;26.65;13.13;;;13.30;59.00;;;;;;5136088;28;20072;-64
2022/03/21 10:20:39;;;;;;;26.77;13.98;;;13.40;58.30;;;;;;5135063;28;20038;-64
2022/03/21 10:23:23;;;;;;;25.75;13.60;;;13.50;58.90;;;;;;5135948;28;20020;-64
2022/03/21 10:25:49;;;;;;;27.67;14.32;;;13.60;59.00;;;;;;5134977;28;20055;-64
2022/03/21 10:28:36;;;;;;;28.98;13.95;;;13.70;59.60;;;;;;5135808;28;20032;-64
2022/03/21 10:31:04;;;;;;;24.92;14.38;;;13.70;57.00;;;;;;5135822;28;20020;-64
2022/03/21 10:33:30;;;;;;;28.33;13.65;;;13.80;56.00;;;;;;5135657;28;20020;-63
2022/03/21 10:36:04;;;;;;;28.08;15.07;;;13.90;57.20;;;;;;5135668;28;20023;-64
2022/03/21 10:38:32;;;;;;;24.70;14.10;;;13.90;57.30;;;;;;5135667;27;20019;-64
2022/03/21 10:41:04;;;;;;;25.02;13.80;;;14.00;56.30;;;;;;5135556;28;20026;-64
2022/03/21 10:43:29;;;;;;;27.08;13.25;;;14.10;55.90;;;;;;5135542;28;20023;-65
2022/03/21 10:45:56;;;;;;;24.42;13.95;;;14.10;55.20;;;;;;5134647;28;20053;-65
2022/03/21 10:48:30;;;;;;;27.85;14.77;;;14.20;57.20;;;;;;5135469;28;20027;-65
2022/03/21 10:50:57;;;;;;;25.48;12.98;;;14.30;54.90;;;;;;5135613;28;20075;-64
2022/03/21 10:53:28;;;;;;;28.55;14.73;;;14.30;55.40;;;;;;5135293;28;20028;-65
2022/03/21 10:55:53;;;;;;;27.13;14.45;;;14.40;55.60;;;;;;5135348;28;20053;-65
2022/03/21 10:58:39;;;;;;;30.85;14.48;;;14.60;55.40;;;;;;5135203;28;20110;-65
2022/03/21 11:01:12;;;;;;;25.58;14.38;;;14.70;55.60;;;;;;5135346;28;20018;-65
2022/03/21 11:03:41;;;;;;;33.25;15.57;;;14.80;52.50;;;;;;5135169;28;20080;-65
2022/03/21 11:06:08;;;;;;;29.17;14.70;;;14.80;53.60;;;;;;5135249;28;20042;-65
2022/03/21 11:08:34;;;;;;;29.63;14.48;;;14.80;53.80;;;;;;5134992;28;20379;-64
2022/03/21 11:11:00;;;;;;;28.20;15.07;;;14.90;54.10;;;;;;5135039;28;20028;-64
2022/03/21 11:13:27;;;;;;;32.15;15.00;;;15.00;53.80;;;;;;5134683;28;20107;-65
2022/03/21 11:15:53;;;;;;;30.48;14.77;;;15.10;53.10;;;;;;5133832;28;20019;-64
2022/03/21 11:18:20;;;;;;;26.48;14.23;;;15.10;53.90;;;;;;5134823;28;20023;-65
2022/03/21 11:20:47;;;;;;;24.45;14.52;;;15.00;52.40;;;;;;5134817;28;20498;-65
2022/03/21 11:23:15;;;;;;;32.75;15.65;;;15.00;52.50;;;;;;5134742;28;20031;-65
2022/03/21 11:25:48;;;;;;;25.20;15.32;;;15.20;54.80;;;;;;5134705;28;20035;-65
2022/03/21 11:28:26;;;;;;;32.70;15.85;;;15.30;52.10;;;;;;5134669;28;20020;-65
2022/03/21 11:31:11;;;;;;;27.05;15.13;;;15.30;51.10;;;;;;5133547;28;20528;-65
2022/03/21 11:33:55;;;;;;;32.38;15.45;;;15.40;52.00;;;;;;5134503;28;20050;-64
2022/03/21 11:36:23;;;;;;;25.17;14.82;;;15.50;52.60;;;;;;5134511;28;20024;-65
2022/03/21 11:38:56;;;;;;;30.67;15.85;;;15.50;52.70;;;;;;5133382;28;20026;-64
2022/03/21 11:41:25;;;;;;;27.27;15.60;;;15.60;52.40;;;;;;5134589;28;20016;-64
2022/03/21 11:44:17;;;;;;;30.08;15.38;;;15.70;52.80;;;;;;5134380;28;20039;-64
2022/03/21 11:46:47;;;;;;;31.10;14.75;;;15.60;51.00;;;;;;5127329;28;20043;-65
2022/03/21 11:49:19;;;;;;;28.50;15.05;;;15.70;52.30;;;;;;5133127;28;20020;-65
2022/03/21 11:51:58;;;;;;;;;;;15.80;52.20;;;;;;5134683;28;20153;-65
2022/03/21 11:54:30;;;;;;;26.90;14.07;;;15.80;50.90;;;;;;5134218;28;19912;-65
2022/03/21 11:56:57;;;;;;;24.23;14.00;;;15.80;51.50;;;;;;5134227;28;20019;-65
2022/03/21 11:59:43;;;;;;;30.88;15.98;;;15.90;51.80;;;;;;5134194;28;20019;-65
2022/03/21 12:02:13;;;;;;;28.50;14.27;;;16.10;52.00;;;;;;5123531;28;20086;-65
2022/03/21 12:04:41;;;;;;;33.15;15.82;;;16.10;51.70;;;;;;5134045;28;20016;-65
2022/03/21 12:07:12;;;;;;;28.85;15.02;;;16.30;51.80;;;;;;5134062;28;20042;-65
2022/03/21 12:09:42;;;;;;;35.22;15.77;;;16.40;51.20;;;;;;5133943;28;20023;-65
2022/03/21 12:12:10;;;;;;;28.65;15.43;;;16.50;51.50;;;;;;5132977;28;20038;-64
2022/03/21 12:14:40;;;;;;;31.33;15.63;;;16.70;51.80;;;;;;5133808;28;20110;-64
2022/03/21 12:17:12;;;;;;;26.67;14.48;;;16.80;51.30;;;;;;5133947;28;20359;-65
2022/03/21 12:19:55;;;;;;;29.23;14.57;;;16.90;50.20;;;;;;5133923;28;20026;-65
2022/03/21 12:22:29;;;;;;;29.42;14.13;;;16.90;48.60;;;;;;5133954;28;20261;-64
2022/03/21 12:25:01;;;;;;;26.55;15.27;;;16.90;48.70;;;;;;5133745;28;20028;-64
2022/03/21 12:27:51;;;;;;;25.70;14.13;;;17.00;49.60;;;;;;5133217;28;20118;-65
2022/03/21 12:30:20;;;;;;;26.63;14.32;;;17.10;48.00;;;;;;5133961;28;20081;-65
2022/03/21 12:32:49;;;;;;;25.55;13.23;;;17.10;49.70;;;;;;5133681;28;20050;-65
2022/03/21 12:35:39;;;;;;;27.95;15.10;;;17.20;47.60;;;;;;5133731;28;20054;-64
2022/03/21 12:38:11;;;;;;;23.00;13.73;;;17.20;48.70;;;;;;5133882;28;20065;-65
2022/03/21 12:40:47;;;;;;;26.77;14.65;;;17.20;47.40;;;;;;5133638;28;20028;-65
2022/03/21 12:43:14;;;;;;;26.90;14.75;;;17.30;48.20;;;;;;5133832;28;20027;-65
2022/03/21 12:45:40;;;;;;;26.13;15.45;;;17.30;48.70;;;;;;5133621;28;20020;-65
2022/03/21 12:48:08;;;;;;;28.17;14.43;;;17.30;48.20;;;;;;5133605;28;20019;-65
2022/03/21 12:50:35;;;;;;;25.90;14.75;;;17.40;47.40;;;;;;5133631;28;20050;-65
2022/03/21 12:53:03;;;;;;;25.15;14.52;;;17.40;48.00;;;;;;5133489;28;20028;-65
2022/03/21 12:55:29;;;;;;;27.60;14.75;;;17.50;47.20;;;;;;5132502;28;20024;-64
2022/03/21 12:57:56;;;;;;;24.83;13.88;;;17.50;48.50;;;;;;5133525;28;20016;-65
2022/03/21 13:00:23;;;;;;;26.35;13.98;;;17.50;47.50;;;;;;5133503;28;20016;-64
2022/03/21 13:02:49;;;;;;;29.45;14.13;;;17.60;47.80;;;;;;5133511;28;20030;-64